Aviation Digital Data Service (ADDS)

Output produced by METARs form (2356 UTC 30 September 2014)
found at http://aviationweather.gov/adds/metars/
 
KORH 302320Z 0100/0124 05006KT 1/2SM -DZ FG OVC002 
     FM010300 04006KT 1SM -DZ BR OVC003 
     FM010900 02008KT 1SM -RA BR OVC003 
     FM011300 01008KT 2SM -RA BR OVC003 
     FM011700 03009KT 6SM -RA BR OVC008 
     FM012200 03008KT 5SM BR OVC008